createdAt,value
2022-12-09T00:01:28.260Z,98409.13
2022-12-09T00:03:58.038Z,98666.94
2022-12-09T00:06:30.358Z,98924.81
2022-12-09T00:09:00.303Z,98666.94
2022-12-09T00:11:29.179Z,98924.81
2022-12-09T00:13:59.595Z,98666.94
2022-12-09T00:16:28.426Z,98924.81
2022-12-09T00:18:59.659Z,99182.69
2022-12-09T00:21:32.324Z,99698.47
2022-12-09T00:24:02.523Z,98924.81
2022-12-09T00:26:31.602Z,98409.13
2022-12-09T00:29:01.664Z,99182.69
2022-12-09T00:31:33.176Z,99182.69
2022-12-09T00:34:04.041Z,99440.56
2022-12-09T00:36:34.741Z,99182.69
2022-12-09T00:39:03.549Z,99698.47
2022-12-09T00:41:32.141Z,99698.47
2022-12-09T00:44:00.818Z,100214.34
2022-12-09T00:46:29.637Z,99698.47
2022-12-09T00:48:58.698Z,99698.47
2022-12-09T00:51:27.596Z,99956.41
2022-12-09T00:53:57.497Z,100472.31
2022-12-09T00:56:30.118Z,99440.56
2022-12-09T00:58:59.574Z,99440.56
2022-12-09T01:01:29.222Z,99440.56
2022-12-09T01:03:58.897Z,99440.56
2022-12-09T01:06:28.332Z,99698.47
2022-12-09T01:08:58.644Z,99440.56
2022-12-09T01:11:30.117Z,99182.69
2022-12-09T01:14:01.629Z,99698.47
2022-12-09T01:16:32.643Z,99698.47
2022-12-09T01:19:04.884Z,99440.56
2022-12-09T01:21:34.959Z,98924.81
2022-12-09T01:24:08.634Z,99182.69
2022-12-09T01:26:37.602Z,99182.69
2022-12-09T01:29:06.937Z,99182.69
2022-12-09T01:31:35.538Z,99698.47
2022-12-09T01:34:04.558Z,99698.47
2022-12-09T01:36:33.167Z,99440.56
2022-12-09T01:39:02.084Z,99698.47
2022-12-09T01:41:32.079Z,99956.41
2022-12-09T01:44:22.601Z,100214.34
2022-12-09T01:46:55.303Z,99440.56
2022-12-09T01:49:27.698Z,100214.34
2022-12-09T01:52:04.802Z,100472.31
2022-12-09T01:54:34.065Z,100472.31
2022-12-09T01:57:06.584Z,99698.47
2022-12-09T01:59:37.833Z,100472.31
2022-12-09T02:02:10.848Z,100214.34
2022-12-09T02:04:46.282Z,99956.41
2022-12-09T02:07:17.213Z,99182.69
2022-12-09T02:09:45.722Z,99698.47
2022-12-09T02:12:18.681Z,99956.41
2022-12-09T02:14:57.278Z,99956.41
2022-12-09T02:17:33.612Z,99956.41
2022-12-09T02:20:14.581Z,100472.31
2022-12-09T02:22:47.084Z,99182.69
2022-12-09T02:25:27.911Z,99440.56
2022-12-09T02:28:16.410Z,99956.41
2022-12-09T02:30:57.215Z,100472.31
2022-12-09T02:33:46.234Z,100214.34
2022-12-09T02:36:22.211Z,99698.47
2022-12-09T02:38:53.893Z,98409.13
2022-12-09T02:41:27.599Z,98409.13
2022-12-09T02:44:05.478Z,98666.94
2022-12-09T02:46:37.268Z,98924.81
2022-12-09T02:49:10.847Z,98409.13
2022-12-09T02:51:42.688Z,98409.13
2022-12-09T02:54:16.688Z,97893.50
2022-12-09T02:56:52.478Z,97893.50
2022-12-09T02:59:21.462Z,97635.72
2022-12-09T03:02:04.716Z,98666.94
2022-12-09T03:04:33.529Z,98924.81
2022-12-09T03:07:14.664Z,99956.41
2022-12-09T03:09:49.099Z,99182.69
2022-12-09T03:12:21.304Z,98924.81
2022-12-09T03:14:53.852Z,99182.69
2022-12-09T03:17:27.557Z,99182.69
2022-12-09T03:19:59.792Z,99698.47
2022-12-09T03:22:32.746Z,99956.41
2022-12-09T03:25:07.000Z,99182.69
2022-12-09T03:27:39.549Z,99182.69
2022-12-09T03:30:11.458Z,99182.69
2022-12-09T03:32:43.062Z,99440.56
2022-12-09T03:35:17.085Z,99440.56
2022-12-09T03:37:49.061Z,99182.69
2022-12-09T03:40:21.274Z,99698.47
2022-12-09T03:42:55.067Z,99956.41
2022-12-09T03:45:24.890Z,99698.47
2022-12-09T03:47:54.252Z,99956.41
2022-12-09T03:50:25.217Z,99956.41
2022-12-09T03:53:01.418Z,99698.47
2022-12-09T03:55:36.212Z,99698.47
2022-12-09T03:58:07.379Z,99182.69
2022-12-09T04:00:39.030Z,98924.81
2022-12-09T04:03:09.815Z,98666.94
2022-12-09T04:05:40.229Z,98409.13
2022-12-09T04:08:10.786Z,98666.94
2022-12-09T04:10:39.408Z,98666.94
2022-12-09T04:13:08.562Z,99182.69
2022-12-09T04:15:39.933Z,99182.69
2022-12-09T04:18:08.844Z,99440.56
2022-12-09T04:20:38.190Z,99440.56
2022-12-09T04:23:06.754Z,99440.56
2022-12-09T04:25:38.552Z,99440.56
2022-12-09T04:28:07.291Z,99698.47
2022-12-09T04:30:36.062Z,99440.56
2022-12-09T04:33:04.721Z,99440.56
2022-12-09T04:35:33.209Z,99698.47
2022-12-09T04:38:02.160Z,99956.41
2022-12-09T04:40:30.881Z,100472.31
2022-12-09T04:43:00.803Z,100730.31
2022-12-09T04:45:29.239Z,100472.31
2022-12-09T04:47:59.468Z,100214.34
2022-12-09T04:50:28.209Z,100214.34
2022-12-09T04:52:56.706Z,99956.41
2022-12-09T04:55:25.350Z,99956.41
2022-12-09T04:57:54.251Z,100472.31
2022-12-09T05:00:25.293Z,100214.34
2022-12-09T05:02:54.292Z,100472.31
2022-12-09T05:05:23.522Z,100472.31
2022-12-09T05:07:52.428Z,100214.34
2022-12-09T05:10:21.540Z,100214.34
2022-12-09T05:12:50.332Z,100214.34
2022-12-09T05:15:19.595Z,100730.31
2022-12-09T05:17:49.863Z,100472.31
2022-12-09T05:20:18.859Z,100730.31
2022-12-09T05:22:47.812Z,100472.31
2022-12-09T05:25:16.893Z,100472.31
2022-12-09T05:27:45.547Z,100472.31
2022-12-09T05:30:15.140Z,100214.34
2022-12-09T05:32:44.759Z,100214.34
2022-12-09T05:35:15.365Z,100472.31
2022-12-09T05:37:44.326Z,100472.31
2022-12-09T05:40:14.133Z,100214.34
2022-12-09T05:42:42.963Z,100214.34
2022-12-09T05:45:12.524Z,100730.31
2022-12-09T05:47:41.783Z,100988.31
2022-12-09T05:50:12.355Z,100988.31
2022-12-09T05:52:42.801Z,101246.34
2022-12-09T05:55:12.039Z,101246.34
2022-12-09T05:57:40.952Z,100988.31
2022-12-09T06:00:10.816Z,100730.31
2022-12-09T06:02:43.000Z,100730.31
2022-12-09T06:05:12.344Z,100472.31
2022-12-09T06:07:43.324Z,100214.34
2022-12-09T06:10:13.166Z,100472.31
2022-12-09T06:12:42.417Z,100472.31
2022-12-09T06:15:15.822Z,100472.31
2022-12-09T06:17:49.649Z,100730.31
2022-12-09T06:20:18.954Z,100988.31
2022-12-09T06:22:49.148Z,100988.31
2022-12-09T06:25:18.072Z,100214.34
2022-12-09T06:27:47.350Z,99956.41
2022-12-09T06:30:16.292Z,100214.34
2022-12-09T06:32:45.296Z,100214.34
2022-12-09T06:35:15.195Z,100472.31
2022-12-09T06:37:44.256Z,100730.31
2022-12-09T06:40:14.648Z,100988.31
2022-12-09T06:42:43.345Z,100730.31
2022-12-09T06:45:13.273Z,100988.31
2022-12-09T06:47:42.823Z,100988.31
2022-12-09T06:50:12.343Z,100730.31
2022-12-09T06:52:42.148Z,101246.34
2022-12-09T06:55:13.177Z,101246.34
2022-12-09T06:57:43.818Z,100730.31
2022-12-09T07:00:14.065Z,100988.31
2022-12-09T07:02:42.729Z,100988.31
2022-12-09T07:05:12.864Z,101246.34
2022-12-09T07:07:41.935Z,101246.34
2022-12-09T07:10:17.754Z,100988.31
2022-12-09T07:12:48.255Z,100730.31
2022-12-09T07:15:17.056Z,100730.31
2022-12-09T07:17:46.059Z,100988.31
2022-12-09T07:20:14.912Z,101504.38
2022-12-09T07:22:43.700Z,101246.34
2022-12-09T07:25:12.611Z,100988.31
2022-12-09T07:27:41.790Z,100988.31
2022-12-09T07:30:12.976Z,100988.31
2022-12-09T07:32:41.585Z,101246.34
2022-12-09T07:35:11.438Z,101504.38
2022-12-09T07:37:40.573Z,101504.38
2022-12-09T07:40:09.866Z,101504.38
2022-12-09T07:42:38.627Z,100988.31
2022-12-09T07:45:09.114Z,100730.31
2022-12-09T07:47:39.458Z,100730.31
2022-12-09T07:50:09.786Z,100988.31
2022-12-09T07:52:38.530Z,101246.34
2022-12-09T07:55:09.163Z,101246.34
2022-12-09T07:57:38.719Z,101246.34
2022-12-09T08:00:09.389Z,101246.34
2022-12-09T08:02:42.146Z,101504.38
2022-12-09T08:05:11.843Z,101246.34
2022-12-09T08:07:44.265Z,101246.34
2022-12-09T08:10:13.986Z,101246.34
2022-12-09T08:12:43.070Z,100988.31
2022-12-09T08:15:13.083Z,100730.31
2022-12-09T08:17:43.552Z,100988.31
2022-12-09T08:20:13.551Z,101246.34
2022-12-09T08:22:42.681Z,100988.31
2022-12-09T08:25:12.268Z,100988.31
2022-12-09T08:27:41.095Z,101246.34
2022-12-09T08:30:11.286Z,101504.38
2022-12-09T08:32:40.200Z,101504.38
2022-12-09T08:35:15.235Z,101762.47
2022-12-09T08:37:45.177Z,101504.38
2022-12-09T08:40:14.781Z,100730.31
2022-12-09T08:42:43.883Z,100472.31
2022-12-09T08:45:12.671Z,100214.34
2022-12-09T08:47:42.696Z,100988.31
2022-12-09T08:50:13.517Z,101246.34
2022-12-09T08:52:43.127Z,100730.31
2022-12-09T08:55:12.115Z,100214.34
2022-12-09T08:57:41.184Z,99698.47
2022-12-09T09:00:10.931Z,99956.41
2022-12-09T09:02:41.205Z,99182.69
2022-12-09T09:05:10.956Z,99698.47
2022-12-09T09:07:42.175Z,100472.31
2022-12-09T09:10:12.144Z,101246.34
2022-12-09T09:12:43.912Z,100988.31
2022-12-09T09:15:14.398Z,100988.31
2022-12-09T09:17:48.166Z,99698.47
2022-12-09T09:20:20.279Z,99698.47
2022-12-09T09:22:51.046Z,99956.41
2022-12-09T09:25:19.854Z,100214.34
2022-12-09T09:27:48.516Z,99956.41
2022-12-09T09:30:17.778Z,99440.56
2022-12-09T09:32:47.040Z,99956.41
2022-12-09T09:35:15.792Z,100214.34
2022-12-09T09:37:44.629Z,99698.47
2022-12-09T09:40:15.528Z,100214.34
2022-12-09T09:42:49.212Z,100214.34
2022-12-09T09:45:22.049Z,100214.34
2022-12-09T09:47:54.401Z,97893.50
2022-12-09T09:50:30.942Z,96862.50
2022-12-09T09:52:59.951Z,97377.97
2022-12-09T09:55:37.501Z,97635.72
2022-12-09T09:58:17.028Z,96347.13
2022-12-09T10:00:53.440Z,95831.81
2022-12-09T10:03:36.559Z,97120.22
2022-12-09T10:06:18.760Z,97120.22
2022-12-09T10:08:59.463Z,96862.50
2022-12-09T10:11:38.638Z,95574.19
2022-12-09T10:14:18.447Z,95831.81
2022-12-09T10:16:55.341Z,96089.47
2022-12-09T10:19:31.006Z,95316.59
2022-12-09T10:22:03.548Z,94543.91
2022-12-09T10:24:39.971Z,95316.59
2022-12-09T10:27:21.189Z,93771.38
2022-12-09T10:29:57.834Z,94028.84
2022-12-09T10:32:30.786Z,94286.38
2022-12-09T10:35:00.390Z,92999.00
2022-12-09T10:37:32.223Z,91969.47
2022-12-09T10:40:20.261Z,92484.19
2022-12-09T10:43:09.632Z,90425.72
2022-12-09T10:46:16.816Z,90682.97
2022-12-09T10:48:37.684Z,89654.13
2022-12-09T10:51:08.815Z,91712.13
2022-12-09T10:53:38.242Z,90425.72
2022-12-09T10:56:08.541Z,90425.72
2022-12-09T10:58:38.685Z,89911.31
2022-12-09T11:01:11.146Z,90168.50
2022-12-09T11:03:41.500Z,88625.56
2022-12-09T11:06:22.148Z,89139.81
2022-12-09T11:08:54.650Z,88625.56
2022-12-09T11:11:42.079Z,89396.97
2022-12-09T11:14:24.177Z,87083.34
2022-12-09T11:16:54.585Z,83744.16
2022-12-09T11:19:36.001Z,84000.91
2022-12-09T11:22:22.513Z,83230.72
2022-12-09T11:24:56.520Z,78613.28
2022-12-09T11:27:31.931Z,79895.28
2022-12-09T11:30:15.557Z,71442.94
2022-12-09T11:32:57.169Z,71698.75
2022-12-09T11:35:54.250Z,69752.56
2022-12-09T11:38:31.465Z,66567.91
2022-12-09T11:41:13.442Z,70419.81
2022-12-09T11:43:46.632Z,69894.38
2022-12-09T11:46:27.290Z,68015.09
2022-12-09T11:48:59.631Z,68558.22
2022-12-09T11:51:33.274Z,69101.41
2022-12-09T11:54:06.720Z,66090.94
2022-12-09T11:56:37.284Z,64522.91
2022-12-09T11:59:13.108Z,66945.09
2022-12-09T12:01:51.349Z,68526.25
2022-12-09T12:04:27.887Z,61414.84
2022-12-09T12:07:03.729Z,58618.25
2022-12-09T12:09:39.109Z,60597.94
2022-12-09T12:12:18.513Z,60926.69
2022-12-09T12:14:47.260Z,59948.53
2022-12-09T12:17:20.992Z,58799.44
2022-12-09T12:19:52.227Z,58966.69
2022-12-09T12:23:11.790Z,59245.50
2022-12-09T12:25:50.199Z,59396.84
2022-12-09T12:28:51.752Z,58301.69
2022-12-09T12:31:51.501Z,57973.19
2022-12-09T12:34:28.496Z,57624.84
2022-12-09T12:37:06.423Z,56884.47
2022-12-09T12:39:47.312Z,56307.41
2022-12-09T12:42:27.628Z,56552.16
2022-12-09T12:45:21.717Z,56784.97
2022-12-09T12:47:56.689Z,56558.13
2022-12-09T12:50:41.235Z,56199.97
2022-12-09T12:53:19.193Z,54787.63
2022-12-09T12:55:55.028Z,54950.69
2022-12-09T12:58:39.251Z,55153.56
2022-12-09T13:01:15.622Z,54731.94
2022-12-09T13:03:54.600Z,54926.84
2022-12-09T13:06:32.457Z,54855.22
2022-12-09T13:09:05.270Z,55048.16
2022-12-09T13:11:40.017Z,55336.56
2022-12-09T13:14:15.178Z,54827.38
2022-12-09T13:16:46.031Z,54823.41
2022-12-09T13:19:18.602Z,54620.56
2022-12-09T13:21:49.087Z,54437.59
2022-12-09T13:24:27.450Z,54656.34
2022-12-09T13:27:02.339Z,54767.72
2022-12-09T13:29:40.677Z,54871.16
2022-12-09T13:32:23.756Z,54843.28
2022-12-09T13:34:55.530Z,54751.81
2022-12-09T13:37:55.812Z,54839.31
2022-12-09T13:40:31.339Z,54755.78
2022-12-09T13:43:19.577Z,54638.44
2022-12-09T13:45:51.951Z,54626.53
2022-12-09T13:48:46.280Z,54606.63
2022-12-09T13:51:16.179Z,54644.41
2022-12-09T13:53:53.712Z,54815.47
2022-12-09T13:56:29.973Z,54813.47
2022-12-09T13:59:31.056Z,54855.22
2022-12-09T14:02:03.304Z,54930.81
2022-12-09T14:04:35.097Z,54946.72
2022-12-09T14:07:17.764Z,54962.63
2022-12-09T14:09:51.168Z,54803.53
2022-12-09T14:12:52.831Z,54747.84
2022-12-09T14:15:41.983Z,54688.16
2022-12-09T14:18:33.060Z,54692.16
2022-12-09T14:21:33.709Z,54598.69
2022-12-09T14:24:44.735Z,54630.50
2022-12-09T14:27:20.821Z,54692.16
2022-12-09T14:29:55.881Z,54654.38
2022-12-09T14:32:31.058Z,54731.94
2022-12-09T14:35:17.468Z,54716.00
2022-12-09T14:38:11.312Z,54696.13
2022-12-09T14:40:53.421Z,54678.22
2022-12-09T14:43:38.591Z,54674.25
2022-12-09T14:46:18.909Z,54628.50
2022-12-09T14:48:53.761Z,54652.38
2022-12-09T14:51:26.171Z,54688.16
2022-12-09T14:53:59.335Z,54706.06
2022-12-09T14:56:30.163Z,54743.84
2022-12-09T14:59:04.232Z,54753.81
2022-12-09T15:01:48.531Z,54759.78
2022-12-09T15:04:24.795Z,54720.00
2022-12-09T15:07:08.638Z,54757.78
2022-12-09T15:09:37.145Z,54809.50
2022-12-09T15:12:11.483Z,54787.63
2022-12-09T15:14:49.742Z,54803.53
2022-12-09T15:17:24.067Z,54853.25
2022-12-09T15:20:01.333Z,54851.25
2022-12-09T15:22:32.776Z,54897.00
2022-12-09T15:25:03.226Z,54883.06
2022-12-09T15:27:33.759Z,54895.00
2022-12-09T15:30:21.690Z,54871.16
2022-12-09T15:32:50.241Z,54938.75
2022-12-09T15:35:23.719Z,54928.81
2022-12-09T15:37:56.109Z,54930.81
2022-12-09T15:40:29.237Z,54972.56
2022-12-09T15:43:02.533Z,55016.34
2022-12-09T15:45:36.874Z,55038.22
2022-12-09T15:48:12.056Z,55093.91
2022-12-09T15:50:47.636Z,55095.88
2022-12-09T15:53:23.406Z,55127.72
2022-12-09T15:55:56.053Z,55165.50
2022-12-09T15:58:30.339Z,55189.38
2022-12-09T16:01:00.349Z,55123.75
2022-12-09T16:03:32.283Z,55074.00
2022-12-09T16:06:10.265Z,55149.59
2022-12-09T16:08:40.670Z,55203.31
2022-12-09T16:11:09.358Z,55209.25
2022-12-09T16:13:57.683Z,55155.56
2022-12-09T16:16:35.263Z,55193.34
2022-12-09T16:19:04.994Z,55175.44
2022-12-09T16:21:35.628Z,55260.97
2022-12-09T16:24:11.558Z,55225.19
2022-12-09T16:26:45.415Z,55243.09
2022-12-09T16:29:20.807Z,55276.91
2022-12-09T16:32:17.792Z,55332.59
2022-12-09T16:34:48.261Z,55201.31
2022-12-09T16:37:30.866Z,55231.16
2022-12-09T16:40:00.218Z,55187.38
2022-12-09T16:42:31.332Z,55155.56
2022-12-09T16:45:23.141Z,55280.88
2022-12-09T16:47:56.078Z,55342.53
2022-12-09T16:50:28.712Z,55495.69
2022-12-09T16:52:58.974Z,55451.94
2022-12-09T16:55:29.835Z,55557.38
2022-12-09T16:57:59.397Z,55623.03
2022-12-09T17:00:27.980Z,55714.53
2022-12-09T17:03:02.036Z,55770.22
2022-12-09T17:05:30.517Z,55808.03
2022-12-09T17:07:59.155Z,55877.66
2022-12-09T17:10:27.592Z,55895.56
2022-12-09T17:12:56.131Z,55859.75
2022-12-09T17:15:24.653Z,55833.88
2022-12-09T17:17:52.968Z,55873.69
2022-12-09T17:20:22.809Z,56072.63
2022-12-09T17:22:51.249Z,56050.75
2022-12-09T17:25:19.775Z,55843.84
2022-12-09T17:27:48.231Z,55829.91
2022-12-09T17:30:16.656Z,55627.00
2022-12-09T17:32:45.121Z,55563.34
2022-12-09T17:35:16.254Z,55601.13
2022-12-09T17:37:46.245Z,55710.56
2022-12-09T17:40:14.639Z,55760.28
2022-12-09T17:42:43.144Z,55875.66
2022-12-09T17:45:11.476Z,55969.19
2022-12-09T17:47:40.409Z,55983.09
2022-12-09T17:50:09.530Z,56048.75
2022-12-09T17:52:38.548Z,56148.22
2022-12-09T17:55:09.573Z,56052.72
2022-12-09T17:57:38.294Z,56114.41
2022-12-09T18:00:08.761Z,56168.13
2022-12-09T18:02:46.274Z,56235.78
2022-12-09T18:05:15.436Z,56396.94
2022-12-09T18:07:43.906Z,56365.13
2022-12-09T18:10:13.841Z,56472.56
2022-12-09T18:12:42.259Z,56593.94
2022-12-09T18:15:11.395Z,56476.53
2022-12-09T18:17:39.963Z,56484.50
2022-12-09T18:20:10.225Z,56538.22
2022-12-09T18:22:38.975Z,56643.69
2022-12-09T18:25:08.696Z,56802.88
2022-12-09T18:27:38.589Z,56651.66
2022-12-09T18:30:08.849Z,56769.06
2022-12-09T18:32:37.612Z,57041.69
2022-12-09T18:35:06.814Z,57294.44
2022-12-09T18:37:35.373Z,57491.50
2022-12-09T18:40:04.213Z,57537.28
2022-12-09T18:42:32.885Z,57585.03
2022-12-09T18:45:02.913Z,57760.22
2022-12-09T18:47:31.599Z,58204.13
2022-12-09T18:49:59.986Z,58409.19
2022-12-09T18:52:28.524Z,58417.16
2022-12-09T18:54:56.958Z,58532.63
2022-12-09T18:57:30.543Z,58819.34
2022-12-09T18:59:59.447Z,58982.63
2022-12-09T19:02:29.552Z,59022.47
2022-12-09T19:04:58.546Z,58996.56
2022-12-09T19:07:32.116Z,59552.19
2022-12-09T19:10:01.029Z,59980.41
2022-12-09T19:12:46.399Z,60177.59
2022-12-09T19:15:16.294Z,60135.78
2022-12-09T19:17:47.221Z,60014.28
2022-12-09T19:20:15.692Z,60259.28
2022-12-09T19:22:44.266Z,60149.72
2022-12-09T19:25:13.796Z,60125.81
2022-12-09T19:27:42.212Z,59681.66
2022-12-09T19:30:11.823Z,59643.81
2022-12-09T19:32:55.941Z,60153.72
2022-12-09T19:35:26.479Z,61012.34
2022-12-09T19:38:00.888Z,61100.03
2022-12-09T19:40:29.954Z,61193.66
2022-12-09T19:42:58.568Z,61173.75
2022-12-09T19:45:27.231Z,60197.53
2022-12-09T19:47:55.700Z,59986.38
2022-12-09T19:50:25.746Z,60464.47
2022-12-09T19:52:54.462Z,61165.78
2022-12-09T19:55:23.013Z,61747.66
2022-12-09T19:57:52.357Z,61476.63
2022-12-09T20:00:20.855Z,61390.94
2022-12-09T20:02:50.881Z,62289.75
2022-12-09T20:05:19.507Z,62716.34
2022-12-09T20:07:49.438Z,62865.84
2022-12-09T20:10:17.953Z,62955.56
2022-12-09T20:12:46.428Z,63507.84
2022-12-09T20:15:14.994Z,62875.81
2022-12-09T20:17:43.700Z,60400.72
2022-12-09T20:20:12.743Z,60414.66
2022-12-09T20:22:41.141Z,59159.84
2022-12-09T20:25:11.404Z,59488.47
2022-12-09T20:27:39.896Z,59213.63
2022-12-09T20:30:10.143Z,59572.09
2022-12-09T20:32:38.739Z,58739.72
2022-12-09T20:35:08.982Z,58926.88
2022-12-09T20:37:38.533Z,58930.84
2022-12-09T20:40:08.226Z,58341.50
2022-12-09T20:42:38.555Z,58082.69
2022-12-09T20:45:08.103Z,57899.56
2022-12-09T20:47:36.562Z,57919.47
2022-12-09T20:50:06.269Z,57951.31
2022-12-09T20:52:35.065Z,57961.25
2022-12-09T20:55:03.509Z,57855.75
2022-12-09T20:57:32.886Z,57696.50
2022-12-09T21:00:02.721Z,57515.38
2022-12-09T21:02:33.531Z,57163.09
2022-12-09T21:05:01.970Z,57087.47
2022-12-09T21:07:30.298Z,57051.63
2022-12-09T21:09:58.764Z,57268.56
2022-12-09T21:12:30.265Z,57081.50
2022-12-09T21:14:58.930Z,57173.03
2022-12-09T21:17:28.669Z,57210.84
2022-12-09T21:19:57.142Z,57079.50
2022-12-09T21:22:26.580Z,57027.75
2022-12-09T21:24:54.971Z,56960.09
2022-12-09T21:27:23.381Z,56796.91
2022-12-09T21:29:51.868Z,56665.56
2022-12-09T21:32:20.307Z,56679.50
2022-12-09T21:34:50.202Z,56840.69
2022-12-09T21:37:18.648Z,56818.81
2022-12-09T21:39:47.854Z,57017.81
2022-12-09T21:42:16.315Z,57244.69
2022-12-09T21:44:44.779Z,57505.44
2022-12-09T21:47:13.279Z,57401.94
2022-12-09T21:49:41.670Z,57330.28
2022-12-09T21:52:11.479Z,57455.66
2022-12-09T21:54:39.906Z,57957.28
2022-12-09T21:57:08.394Z,57676.59
2022-12-09T21:59:36.847Z,57696.50
2022-12-09T22:02:06.136Z,58114.53
2022-12-09T22:04:34.633Z,57951.31
2022-12-09T22:07:03.223Z,58335.53
2022-12-09T22:09:33.386Z,57899.56
2022-12-09T22:12:02.830Z,58218.06
2022-12-09T22:14:31.706Z,58441.03
2022-12-09T22:17:00.842Z,58672.00
2022-12-09T22:19:29.637Z,59165.84
2022-12-09T22:21:58.099Z,60502.31
2022-12-09T22:24:26.785Z,60695.56
2022-12-09T22:26:56.568Z,59811.09
2022-12-09T22:29:25.263Z,59472.53
2022-12-09T22:31:53.592Z,59167.81
2022-12-09T22:34:22.277Z,59504.38
2022-12-09T22:36:51.241Z,59273.38
2022-12-09T22:39:22.491Z,59024.44
2022-12-09T22:44:10.425Z,58644.13
2022-12-09T22:46:39.391Z,58466.94
2022-12-09T22:49:08.098Z,58235.97
2022-12-09T22:51:37.806Z,57837.84
2022-12-09T22:54:08.327Z,57760.22
2022-12-09T22:56:38.224Z,57983.16
2022-12-09T22:59:07.507Z,57778.13
2022-12-09T23:01:38.502Z,57817.94
2022-12-09T23:04:08.669Z,57796.03
2022-12-09T23:06:38.911Z,57662.66
2022-12-09T23:09:09.307Z,57606.94
2022-12-09T23:11:38.251Z,57915.47
2022-12-09T23:14:06.936Z,57947.31
2022-12-09T23:16:35.293Z,57806.00
2022-12-09T23:19:05.272Z,57660.69
2022-12-09T23:21:35.901Z,57184.97
2022-12-09T23:24:13.207Z,57541.25
2022-12-09T23:26:43.043Z,57989.13
2022-12-09T23:29:15.654Z,58327.56
2022-12-09T23:31:44.597Z,57913.47
2022-12-09T23:34:15.588Z,57760.22
2022-12-09T23:36:45.642Z,57577.09
2022-12-09T23:39:17.132Z,57226.78
2022-12-09T23:41:46.887Z,57226.78
2022-12-09T23:44:17.246Z,57459.66
2022-12-09T23:46:45.913Z,57393.97
2022-12-09T23:49:16.239Z,57485.53
2022-12-09T23:51:45.110Z,57835.84
2022-12-09T23:54:15.660Z,57774.13
2022-12-09T23:56:49.718Z,57636.78
2022-12-09T23:59:21.539Z,57326.28
